• Join FlightAware (Why Join?)
  • Login
  • US Flag 
08:47PM EST


 

Airport Tracker/Info


-or-


 

Live Flight TrackerFlight Track Log ✈ N240JK ✈ 06-Jan-2014 ✈ KPIE - KUES

Flight Track Log - Related Links

Times and Time Zones

All times are in EST time to prevent confusion due to time zone crossing. See the N240JK flight status page for this flight to view local times or setup timezone preferences in your user account.

Time Position Orientation Groundspeed Altitude Reporting Facility
EST Latitude Longitude Course Direction KTS MPH feet Rate Location/Type
05:59PM 27.9167 -82.6833 344° North 164 189 900  Level Tampa TRACON
06:00PM 27.9667 -82.7000 344° North 192 221 2,800 2,280 Climbing Tampa TRACON
06:02PM 28.0872 -82.7208 351° North 241 277 7,600 2,700 Climbing Jacksonville Center
06:03PM 28.1706 -82.7253 357° North 272 313 10,800 3,240 Climbing Jacksonville Center
06:04PM 28.2542 -82.7394 352° North 294 338 14,100 3,120 Climbing Jacksonville Center
06:05PM 28.3522 -82.7606 349° North 326 375 17,100 2,880 Climbing Jacksonville Center
06:06PM 28.4586 -82.7864 348° North 362 417 19,900 2,760 Climbing Jacksonville Center
06:07PM 28.5672 -82.8122 348° North 382 440 22,700 2,460 Climbing Jacksonville Center
06:08PM 28.6800 -82.8358 350° North 399 459 24,900 2,040 Climbing Jacksonville Center
06:09PM 28.7969 -82.8642 348° North 411 473 26,800 1,920 Climbing Jacksonville Center
06:10PM 28.9158 -82.8903 349° North 424 488 28,800 1,980 Climbing Jacksonville Center
06:11PM 29.0389 -82.9186 349° North 437 503 30,800 1,920 Climbing Jacksonville Center
06:12PM 29.1642 -82.9472 349° North 451 519 32,700 1,920 Climbing Jacksonville Center
06:13PM 29.2811 -82.9903 342° North 445 512 34,700 1,920 Climbing Jacksonville Center
06:14PM 29.4000 -83.0331 343° North 445 512 36,600 2,160 Climbing Jacksonville Center
06:15PM 29.5314 -83.0811 342° North 439 505 39,100 1,680 Climbing Jacksonville Center
06:16PM 29.6442 -83.1244 342° North 425 489 40,000 420 Climbing Jacksonville Center
06:17PM 29.7611 -83.1678 342° North 432 497 40,000  Level Jacksonville Center
06:18PM 29.8736 -83.2089 342° North 430 495 40,000  Level Jacksonville Center
06:19PM 29.9883 -83.2547 341° North 425 489 40,000  Level Jacksonville Center
06:20PM 30.0906 -83.2911 343° North 425 489 40,000  Level Jacksonville Center
06:21PM 30.2031 -83.3347 341° North 425 489 40,000  Level Jacksonville Center
06:22PM 30.3117 -83.3761 342° North 425 489 40,000  Level Jacksonville Center
06:23PM 30.4219 -83.4178 342° North 425 489 40,000  Level Jacksonville Center
06:24PM 30.5431 -83.4617 343° North 425 489 40,000  Level Jacksonville Center
06:25PM 30.6492 -83.5036 341° North 419 482 40,000  Level Jacksonville Center
06:26PM 30.7556 -83.5453 341° North 413 475 40,000  Level Jacksonville Center
06:27PM 30.8639 -83.5897 341° North 406 467 40,000  Level Jacksonville Center
06:28PM 30.9722 -83.6317 342° North 406 467 40,000  Level Jacksonville Center
06:29PM 31.0806 -83.6711 343° North 411 473 40,000  Level Jacksonville Center
06:31PM 31.2808 -83.7522 341° North 420 483 40,000  Level Atlanta Center
06:32PM 31.3917 -83.7956 342° North 420 483 40,000  Level Atlanta Center
06:33PM 31.5003 -83.8392 341° North 420 483 40,000  Level Atlanta Center
06:34PM 31.6150 -83.8828 342° North 420 483 40,000  Level Atlanta Center
06:35PM 31.7172 -83.9242 341° North 425 489 40,000  Level Atlanta Center
06:36PM 31.8322 -83.9681 342° North 430 495 40,000  Level Atlanta Center
06:37PM 31.9428 -84.0094 342° North 425 489 40,000  Level Atlanta Center
06:38PM 32.0533 -84.0536 341° North 425 489 40,000  Level Atlanta Center
06:39PM 32.1642 -84.0978 341° North 425 489 40,000  Level Atlanta Center
06:40PM 32.2747 -84.1419 341° North 425 489 40,000  Level Atlanta Center
06:41PM 32.3853 -84.1864 341° North 425 489 40,000  Level Atlanta Center
06:42PM 32.4936 -84.2286 342° North 425 489 40,000  Level Atlanta Center
06:43PM 32.6042 -84.2756 340° North 420 483 40,000  Level Atlanta Center
06:44PM 32.7106 -84.3178 342° North 415 478 40,000  Level Atlanta Center
06:45PM 32.8169 -84.3625 341° North 405 466 40,000  Level Atlanta Center
06:46PM 32.9275 -84.4075 341° North 405 466 40,000  Level Atlanta Center
06:47PM 33.0317 -84.4478 342° North 405 466 40,000  Level Atlanta Center
06:48PM 33.1506 -84.4953 342° North 405 466 40,000  Level Atlanta Center
06:49PM 33.2569 -84.5381 341° North 405 466 40,000  Level Atlanta Center
06:50PM 33.3589 -84.5811 341° North 400 460 40,000  Level Atlanta Center
06:51PM 33.4611 -84.6239 341° North 393 452 40,000  Level Atlanta Center
06:52PM 33.5611 -84.6644 341° North 383 441 40,000  Level Atlanta Center
06:53PM 33.6589 -84.7053 341° North 377 434 40,000  Level Atlanta Center
06:54PM 33.7631 -84.7458 342° North 377 434 40,000  Level Atlanta Center
06:55PM 33.8608 -84.7894 340° North 382 440 40,000  Level Atlanta Center
06:56PM 33.9608 -84.8278 342° North 382 440 40,000  Level Atlanta Center
06:57PM 34.0567 -84.8664 342° North 389 448 40,000  Level Atlanta Center
06:58PM 34.1669 -84.9125 341° North 384 442 40,000  Level Atlanta Center
06:59PM 34.2708 -84.9539 342° North 384 442 40,000  Level Atlanta Center
07:00PM 34.3728 -84.9978 340° North 384 442 40,000  Level Atlanta Center
07:01PM 34.4747 -85.0417 340° North 384 442 40,000  Level Atlanta Center
07:02PM 34.5789 -85.0833 342° North 384 442 40,000  Level Atlanta Center
07:03PM 34.6786 -85.1275 340° North 384 442 40,000  Level Atlanta Center
07:04PM 34.7825 -85.1692 342° North 384 442 40,000  Level Atlanta Center
07:05PM 34.8844 -85.2111 341° North 385 443 40,000  Level Atlanta Center
07:06PM 34.9861 -85.2556 340° North 385 443 40,000  Level Atlanta Center
07:07PM 35.0900 -85.3003 341° North 385 443 40,000  Level Atlanta Center
07:08PM 35.1919 -85.3450 340° North 385 443 40,000  Level Atlanta Center
07:09PM 35.2783 -85.3797 342° North 400 460 40,000  Level Memphis Center
07:10PM 35.3853 -85.4258 341° North 404 465 40,000  Level Memphis Center
07:11PM 35.4939 -85.4714 341° North 407 468 40,000  Level Memphis Center
07:12PM 35.6011 -85.5169 341° North 406 467 40,000  Level Memphis Center
07:13PM 35.7072 -85.5636 340° North 402 463 40,000  Level Memphis Center
07:14PM 35.8139 -85.6103 340° North 403 464 40,000  Level Memphis Center
07:15PM 35.9197 -85.6556 341° North 400 460 40,000  Level Memphis Center
07:16PM 36.0453 -85.7111 340° North 397 457 40,000  Level Memphis Center
07:17PM 36.1500 -85.7575 340° North 397 457 40,000  Level Memphis Center
07:18PM 36.2128 -85.7850 341° North 396 456 40,000  Level Indianapolis Center
07:19PM 36.3103 -85.8278 341° North 392 451 40,000  Level Indianapolis Center
07:20PM 36.4144 -85.8731 341° North 393 452 40,000  Level Indianapolis Center
07:21PM 36.5375 -85.9281 340° North 401 461 40,000  Level Indianapolis Center
07:22PM 36.6439 -85.9742 341° North 401 461 40,000  Level Indianapolis Center
07:23PM 36.7511 -86.0211 341° North 404 465 40,000  Level Indianapolis Center
07:24PM 36.8581 -86.0697 340° North 405 466 40,000  Level Indianapolis Center
07:25PM 36.9642 -86.1164 341° North 404 465 40,000  Level Indianapolis Center
07:26PM 37.0719 -86.1650 340° North 407 468 40,000  Level Indianapolis Center
07:27PM 37.1792 -86.2119 341° North 406 467 40,000  Level Indianapolis Center
07:28PM 37.2867 -86.2619 340° North 407 468 40,000  Level Indianapolis Center
07:29PM 37.3942 -86.3103 340° North 407 468 40,000  Level Indianapolis Center
07:30PM 37.5006 -86.3564 341° North 403 464 40,000  Level Indianapolis Center
07:31PM 37.6058 -86.4064 339° North 402 463 40,000  Level Indianapolis Center
07:32PM 37.7111 -86.4550 340° North 400 460 40,000  Level Indianapolis Center
07:33PM 37.8228 -86.5061 340° North 402 463 40,000  Level Indianapolis Center
07:34PM 37.9272 -86.5542 340° North 399 459 40,000  Level Indianapolis Center
07:35PM 38.0331 -86.6031 340° North 402 463 40,000  Level Indianapolis Center
07:36PM 38.1375 -86.6503 340° North 399 459 40,000  Level Indianapolis Center
07:37PM 38.2425 -86.6994 340° North 401 461 40,000  Level Indianapolis Center
07:38PM 38.3469 -86.7503 339° North 403 464 40,000  Level Indianapolis Center
07:39PM 38.4731 -86.8072 341° North 403 464 40,000  Level Indianapolis Center
07:40PM 38.5767 -86.8575 339° North 401 461 40,000  Level Indianapolis Center
07:41PM 38.6814 -86.9078 339° North 402 463 40,000  Level Indianapolis Center
07:42PM 38.7864 -86.9567 340° North 401 461 40,000  Level Indianapolis Center
07:43PM 38.8917 -87.0061 340° North 401 461 40,000  Level Indianapolis Center
07:44PM 38.9958 -87.0564 339° North 398 458 40,000  Level Indianapolis Center
07:45PM 39.1017 -87.1056 340° North 399 459 40,000  Level Indianapolis Center
07:46PM 39.2042 -87.1564 339° North 402 463 40,000  Level Indianapolis Center
07:47PM 39.3092 -87.2058 340° North 402 463 40,000  Level Indianapolis Center
07:49PM 39.4144 -87.2572 339° North 403 464 40,000  Level Indianapolis Center
07:50PM 39.5181 -87.3058 340° North 399 459 40,000  Level Indianapolis Center
07:51PM 39.6219 -87.3558 340° North 399 459 40,000  Level Indianapolis Center
07:52PM 39.7461 -87.4161 340° North 398 458 40,000  Level Indianapolis Center
07:53PM 39.8494 -87.4658 340° North 397 457 40,000  Level Indianapolis Center
07:54PM 39.9533 -87.5158 340° North 398 458 40,000  Level Indianapolis Center
07:55PM 40.0572 -87.5681 339° North 399 459 40,000  Level Indianapolis Center
07:56PM 40.1608 -87.6189 339° North 399 459 40,000  Level Indianapolis Center
07:57PM 40.2644 -87.6706 339° North 399 459 40,000  Level Indianapolis Center
07:58PM 40.3681 -87.7200 340° North 398 458 40,000  Level Indianapolis Center
07:59PM 40.4714 -87.7742 338° Northwest 400 460 40,000  Level Indianapolis Center
08:00PM 40.5761 -87.8250 340° North 400 460 40,000  Level Indianapolis Center
08:01PM 40.6797 -87.8753 340° North 399 459 40,000  Level Indianapolis Center
08:02PM 40.8028 -87.9397 338° Northwest 398 458 40,000  Level Indianapolis Center
08:03PM 40.9058 -87.9917 339° North 398 458 40,000 -960 Level Indianapolis Center
08:04PM 41.0081 -88.0414 340° North 395 455 38,100 -2,460 Descending Indianapolis Center
08:05PM 41.1481 -88.1136 339° North 396 456 34,100 -2,880 Descending Chicago Center
08:06PM 41.2519 -88.1669 339° North 397 457 31,100 -2,040 Descending Chicago Center
08:07PM 41.3506 -88.2172 339° North 377 434 30,000 -600 Descending Chicago Center
08:08PM 41.4528 -88.2675 340° North 382 440 30,000 -720 Level Chicago Center
08:09PM 41.5586 -88.3158 341° North 395 455 28,600 -2,280 Descending Chicago Center
08:10PM 41.6678 -88.3156 360° North 388 447 25,400 -3,300 Descending Chicago Center
08:11PM 41.7717 -88.3150 360° North 373 429 21,900 -3,420 Descending Chicago Center
08:12PM 41.8697 -88.3131 North 354 407 18,500 -2,820 Descending Chicago Center
08:13PM 41.9633 -88.3131 360° North 337 388 16,200 -1,200 Descending Chicago Center
08:14PM 42.0542 -88.3111 North 327 376 16,100 -60 Descending Chicago Center
08:15PM 42.1461 -88.3117 360° North 329 379 16,100  Level Chicago Center
08:16PM 42.2583 -88.3100 North 334 384 16,100 -240 Level Chicago Center
08:17PM 42.3422 -88.3100 360° North 337 388 15,700 -840 Descending Chicago Center
08:18PM 42.4375 -88.3075 North 342 394 14,500 -1,380 Descending Chicago Center
08:19PM 42.5272 -88.3067 360° North 327 376 13,000 -1,680 Descending Chicago Center
08:21PM 42.6319 -88.2944 North 316 364 11,100 -1,860 Descending Chicago Center
08:22PM 42.7089 -88.2850 North 284 327 9,300 -1,860 Descending Chicago Center
08:23PM 42.7689 -88.2739 North 222 255 7,400 -1,920 Descending Chicago Center
08:24PM 42.8331 -88.2642 North 229 264 5,400 -1,740 Descending Chicago Center
08:25PM 42.8944 -88.2522 North 227 261 3,900 -1,260 Descending Chicago Center
08:26PM 42.9497 -88.2383 10° North 216 249 2,900 -660 Descending Chicago Center
08:27PM 42.9833 -88.1844 50° Northeast 210 242 2,600 -300 Descending Chicago Center
08:28PM 43.0158 -88.1550 34° Northeast 186 214 2,300 -420 Descending Chicago Center
08:29PM 43.0336 -88.1872 307° West 143 165 1,800 -480 Descending Chicago Center
08:30PM 43.0411 -88.2353 282° West 131 151 1,400 -420 Descending Chicago Center